createdAt,value
2019-04-22T00:00:00.994Z,44.80
2019-04-22T00:00:40.751Z,44.80
2019-04-22T00:01:21.550Z,44.80
2019-04-22T00:01:58.193Z,44.90
2019-04-22T00:02:28.556Z,45.00
2019-04-22T00:03:09.161Z,45.10
2019-04-22T00:03:50.193Z,45.20
2019-04-22T00:04:31.326Z,45.20
2019-04-22T00:05:05.806Z,45.20
2019-04-22T00:05:53.232Z,45.30
2019-04-22T00:06:25.988Z,45.50
2019-04-22T00:07:05.805Z,45.60
2019-04-22T00:07:44.964Z,45.70
2019-04-22T00:08:16.723Z,45.50
2019-04-22T00:08:56.160Z,45.50
2019-04-22T00:09:35.955Z,45.40
2019-04-22T00:10:13.364Z,45.30
2019-04-22T00:10:52.675Z,45.40
2019-04-22T00:11:29.366Z,45.50
2019-04-22T00:12:07.448Z,45.50
2019-04-22T00:12:45.429Z,45.50
2019-04-22T00:13:20.193Z,45.40
2019-04-22T00:13:55.284Z,45.20
2019-04-22T00:14:23.044Z,45.10
2019-04-22T00:14:57.105Z,44.90
2019-04-22T00:15:32.675Z,44.90
2019-04-22T00:16:22.602Z,44.80
2019-04-22T00:16:51.829Z,44.80
2019-04-22T00:18:07.676Z,44.70
2019-04-22T00:18:56.417Z,44.70
2019-04-22T00:19:24.365Z,44.60
2019-04-22T00:20:03.109Z,44.70
2019-04-22T00:20:35.450Z,44.80
2019-04-22T00:21:12.978Z,44.80
2019-04-22T00:21:47.607Z,44.90
2019-04-22T00:22:22.262Z,45.10
2019-04-22T00:22:56.708Z,45.20
2019-04-22T00:23:37.350Z,45.20
2019-04-22T00:24:13.226Z,45.20
2019-04-22T00:24:46.827Z,45.20
2019-04-22T00:25:26.459Z,45.20
2019-04-22T00:26:03.978Z,45.30
2019-04-22T00:26:40.636Z,45.20
2019-04-22T00:27:14.075Z,45.20
2019-04-22T00:27:50.319Z,45.20
2019-04-22T00:28:24.838Z,45.20
2019-04-22T00:29:21.360Z,45.20
2019-04-22T00:29:50.940Z,45.20
2019-04-22T00:30:18.128Z,45.20
2019-04-22T00:30:51.050Z,45.30
2019-04-22T00:31:26.807Z,45.20
2019-04-22T00:32:05.335Z,45.20
2019-04-22T00:32:50.021Z,45.30
2019-04-22T00:33:34.092Z,45.30
2019-04-22T00:34:06.226Z,45.30
2019-04-22T00:34:51.326Z,45.20
2019-04-22T00:35:24.178Z,45.10
2019-04-22T00:36:07.014Z,45.30
2019-04-22T00:36:36.520Z,45.50
2019-04-22T00:37:17.205Z,45.70
2019-04-22T00:37:49.286Z,45.70
2019-04-22T00:38:33.831Z,45.90
2019-04-22T00:39:07.518Z,45.90
2019-04-22T00:39:41.144Z,46.10
2019-04-22T00:40:26.511Z,46.20
2019-04-22T00:40:51.169Z,46.20
2019-04-22T00:41:34.174Z,46.10
2019-04-22T00:42:01.948Z,46.20
2019-04-22T00:42:40.935Z,46.10
2019-04-22T00:43:21.235Z,46.10
2019-04-22T00:43:58.204Z,46.20
2019-04-22T00:44:34.453Z,46.20
2019-04-22T00:45:07.954Z,46.20
2019-04-22T00:45:44.759Z,46.30
2019-04-22T00:46:22.648Z,46.30
2019-04-22T00:47:01.200Z,46.30
2019-04-22T00:47:36.703Z,46.10
2019-04-22T00:48:12.506Z,46.00
2019-04-22T00:48:39.948Z,46.00
2019-04-22T00:50:00.217Z,46.20
2019-04-22T00:50:58.269Z,46.30
2019-04-22T00:51:20.723Z,46.30
2019-04-22T00:51:52.419Z,46.40
2019-04-22T00:52:21.737Z,46.50
2019-04-22T00:53:04.526Z,46.60
2019-04-22T00:53:36.068Z,46.70
2019-04-22T00:54:06.017Z,46.80
2019-04-22T00:54:55.994Z,46.70
2019-04-22T00:55:26.295Z,46.90
2019-04-22T00:56:11.336Z,47.20
2019-04-22T00:56:40.966Z,47.10
2019-04-22T00:57:21.718Z,47.30
2019-04-22T00:58:02.868Z,47.40
2019-04-22T00:58:36.765Z,47.40
2019-04-22T00:59:12.756Z,47.40
2019-04-22T00:59:45.809Z,47.40
2019-04-22T01:00:27.739Z,47.10
2019-04-22T01:01:03.337Z,47.10
2019-04-22T01:01:55.845Z,47.10
2019-04-22T01:02:13.099Z,47.20
2019-04-22T01:02:49.701Z,47.30
2019-04-22T01:03:32.295Z,47.20
2019-04-22T01:04:05.635Z,47.30
2019-04-22T01:04:39.247Z,47.30
2019-04-22T01:05:15.190Z,47.40
2019-04-22T01:05:48.216Z,47.40
2019-04-22T01:06:25.762Z,47.50
2019-04-22T01:07:00.723Z,47.50
2019-04-22T01:07:40.570Z,47.50
2019-04-22T01:08:23.504Z,47.50
2019-04-22T01:09:36.967Z,47.50
2019-04-22T01:10:09.940Z,47.50
2019-04-22T01:10:42.226Z,47.60
2019-04-22T01:11:22.730Z,47.60
2019-04-22T01:11:52.628Z,47.60
2019-04-22T01:13:08.037Z,47.60
2019-04-22T01:13:38.396Z,47.70
2019-04-22T01:14:12.559Z,47.90
2019-04-22T01:14:55.347Z,47.90
2019-04-22T01:15:37.841Z,47.70
2019-04-22T01:16:13.917Z,47.80
2019-04-22T01:16:46.039Z,47.90
2019-04-22T01:17:22.052Z,48.00
2019-04-22T01:17:57.621Z,48.30
2019-04-22T01:18:32.701Z,48.30
2019-04-22T01:19:07.916Z,48.40
2019-04-22T01:19:50.980Z,48.40
2019-04-22T01:20:52.409Z,48.50
2019-04-22T01:22:13.365Z,48.50
2019-04-22T01:22:53.238Z,48.60
2019-04-22T01:23:23.774Z,48.70
2019-04-22T01:24:02.922Z,48.80
2019-04-22T01:24:40.317Z,48.80
2019-04-22T01:25:14.664Z,48.80
2019-04-22T01:25:55.736Z,48.90
2019-04-22T01:26:28.981Z,48.80
2019-04-22T01:27:01.882Z,48.80
2019-04-22T01:27:43.390Z,48.80
2019-04-22T01:28:15.284Z,48.80
2019-04-22T01:28:50.565Z,49.00
2019-04-22T01:29:28.064Z,49.20
2019-04-22T01:30:07.157Z,49.30
2019-04-22T01:30:40.565Z,49.70
2019-04-22T01:31:15.359Z,49.90
2019-04-22T01:31:47.394Z,50.00
2019-04-22T01:32:27.300Z,50.00
2019-04-22T01:33:05.893Z,49.90
2019-04-22T01:33:40.850Z,50.00
2019-04-22T01:34:23.270Z,50.10
2019-04-22T01:35:03.505Z,50.30
2019-04-22T01:35:35.845Z,50.20
2019-04-22T01:36:23.238Z,50.10
2019-04-22T01:36:57.750Z,50.20
2019-04-22T01:37:32.886Z,50.20
2019-04-22T01:38:04.285Z,50.20
2019-04-22T01:38:53.199Z,50.20
2019-04-22T01:39:21.594Z,50.10
2019-04-22T01:40:04.734Z,50.00
2019-04-22T01:40:42.985Z,49.70
2019-04-22T01:41:16.083Z,49.70
2019-04-22T01:41:59.889Z,49.50
2019-04-22T01:42:24.447Z,49.40
2019-04-22T01:43:15.077Z,49.40
2019-04-22T01:43:54.399Z,49.50
2019-04-22T01:44:22.593Z,49.60
2019-04-22T01:44:54.663Z,49.70
2019-04-22T01:45:33.041Z,49.80
2019-04-22T01:46:07.990Z,49.70
2019-04-22T01:46:47.648Z,49.70
2019-04-22T01:47:18.334Z,49.80
2019-04-22T01:47:56.397Z,49.80
2019-04-22T01:48:32.588Z,49.80
2019-04-22T01:49:10.363Z,50.50
2019-04-22T01:49:39.853Z,49.90
2019-04-22T01:50:18.989Z,50.00
2019-04-22T01:50:54.904Z,50.00
2019-04-22T01:51:47.855Z,50.10
2019-04-22T01:52:12.895Z,50.10
2019-04-22T01:52:47.179Z,50.20
2019-04-22T01:53:20.471Z,50.20
2019-04-22T01:54:05.481Z,50.20
2019-04-22T01:55:18.989Z,50.00
2019-04-22T01:55:55.403Z,50.00
2019-04-22T01:56:27.269Z,50.10
2019-04-22T01:56:57.140Z,50.20
2019-04-22T01:57:39.014Z,50.20
2019-04-22T01:58:08.478Z,50.20
2019-04-22T01:58:40.669Z,50.30
2019-04-22T01:59:15.849Z,50.40
2019-04-22T01:59:51.784Z,50.50
2019-04-22T02:00:39.954Z,50.70
2019-04-22T02:01:15.966Z,50.90
2019-04-22T02:01:52.481Z,50.90
2019-04-22T02:02:30.395Z,50.90
2019-04-22T02:03:07.260Z,50.90
2019-04-22T02:03:40.041Z,50.90
2019-04-22T02:04:24.030Z,51.00
2019-04-22T02:04:53.249Z,51.10
2019-04-22T02:05:24.813Z,51.30
2019-04-22T02:06:07.509Z,51.40
2019-04-22T02:06:43.620Z,51.50
2019-04-22T02:07:16.512Z,51.60
2019-04-22T02:07:49.256Z,51.40
2019-04-22T02:08:40.899Z,51.30
2019-04-22T02:09:10.954Z,51.20
2019-04-22T02:09:42.874Z,51.20
2019-04-22T02:10:25.885Z,51.20
2019-04-22T02:10:54.619Z,51.20
2019-04-22T02:11:32.585Z,51.30
2019-04-22T02:12:05.835Z,51.30
2019-04-22T02:12:46.579Z,51.30
2019-04-22T02:13:23.814Z,51.30
2019-04-22T02:13:56.353Z,51.20
2019-04-22T02:14:32.997Z,51.30
2019-04-22T02:15:06.339Z,51.50
2019-04-22T02:15:47.870Z,51.60
2019-04-22T02:16:19.909Z,51.80
2019-04-22T02:16:55.715Z,51.80
2019-04-22T02:17:36.862Z,51.90
2019-04-22T02:18:18.079Z,52.00
2019-04-22T02:18:45.187Z,52.00
2019-04-22T02:19:24.413Z,52.10
2019-04-22T02:19:58.057Z,52.10
2019-04-22T02:20:40.663Z,52.20
2019-04-22T02:21:09.577Z,52.30
2019-04-22T02:21:49.798Z,52.40
2019-04-22T02:22:38.607Z,52.60
2019-04-22T02:23:40.782Z,52.60
2019-04-22T02:23:54.098Z,52.60
2019-04-22T02:24:33.707Z,52.70
2019-04-22T02:25:09.348Z,52.70
2019-04-22T02:25:51.616Z,52.70
2019-04-22T02:26:26.738Z,52.80
2019-04-22T02:26:58.167Z,52.70
2019-04-22T02:27:51.555Z,52.70
2019-04-22T02:28:17.106Z,52.70
2019-04-22T02:28:59.680Z,52.70
2019-04-22T02:29:21.927Z,52.70
2019-04-22T02:29:51.984Z,52.50
2019-04-22T02:30:57.152Z,52.40
2019-04-22T02:31:56.463Z,52.50
2019-04-22T02:32:38.865Z,52.40
2019-04-22T02:33:25.438Z,52.40
2019-04-22T02:34:05.362Z,52.30
2019-04-22T02:34:21.571Z,52.20
2019-04-22T02:35:01.529Z,52.20
2019-04-22T02:35:34.169Z,52.20
2019-04-22T02:36:19.756Z,52.10
2019-04-22T02:36:41.394Z,52.20
2019-04-22T02:37:54.887Z,52.50
2019-04-22T02:39:39.223Z,53.10
2019-04-22T02:40:21.259Z,53.20
2019-04-22T02:41:43.815Z,52.90
2019-04-22T02:42:43.516Z,52.90
2019-04-22T02:43:41.528Z,52.80
2019-04-22T02:44:40.992Z,52.70
2019-04-22T02:45:26.719Z,52.80
2019-04-22T02:47:27.491Z,52.90
2019-04-22T02:48:31.480Z,53.00
2019-04-22T02:50:01.757Z,53.30
2019-04-22T02:50:36.668Z,53.30
2019-04-22T02:51:17.109Z,53.40
2019-04-22T02:51:47.443Z,53.40
2019-04-22T02:52:43.217Z,53.30
2019-04-22T02:53:03.637Z,53.20
2019-04-22T02:54:17.254Z,53.00
2019-04-22T02:54:29.790Z,52.80
2019-04-22T02:55:27.675Z,52.50
2019-04-22T02:56:15.637Z,52.50
2019-04-22T02:57:25.814Z,52.60
2019-04-22T02:57:49.594Z,52.50
2019-04-22T02:58:37.364Z,52.50
2019-04-22T02:59:39.581Z,52.70
2019-04-22T03:00:21.578Z,52.70
2019-04-22T03:00:58.918Z,52.50
2019-04-22T03:01:39.798Z,52.70
2019-04-22T03:02:03.116Z,52.60
2019-04-22T03:02:50.595Z,52.70
2019-04-22T03:03:31.353Z,52.70
2019-04-22T03:04:07.095Z,52.70
2019-04-22T03:04:24.669Z,52.60
2019-04-22T03:05:13.260Z,52.50
2019-04-22T03:06:34.954Z,52.60
2019-04-22T03:07:09.017Z,52.70
2019-04-22T03:07:32.269Z,52.90
2019-04-22T03:08:21.215Z,53.00
2019-04-22T03:08:51.220Z,53.20
2019-04-22T03:09:23.634Z,53.20
2019-04-22T03:09:57.787Z,53.30
2019-04-22T03:10:47.272Z,53.40
2019-04-22T03:11:18.983Z,53.40
2019-04-22T03:11:56.632Z,53.50
2019-04-22T03:12:25.149Z,53.40
2019-04-22T03:13:01.073Z,53.40
2019-04-22T03:13:49.423Z,53.40
2019-04-22T03:14:13.152Z,53.50
2019-04-22T03:15:21.651Z,53.70
2019-04-22T03:17:58.441Z,53.30
2019-04-22T03:18:38.330Z,53.20
2019-04-22T03:19:59.259Z,53.00
2019-04-22T03:21:00.236Z,53.10
2019-04-22T03:21:27.633Z,53.10
2019-04-22T03:22:12.602Z,53.10
2019-04-22T03:23:25.417Z,53.10
2019-04-22T03:26:02.639Z,53.60
2019-04-22T03:26:58.990Z,53.70
2019-04-22T03:27:29.958Z,53.70
2019-04-22T03:28:08.742Z,53.80
2019-04-22T03:28:57.034Z,53.90
2019-04-22T03:30:11.207Z,53.90
2019-04-22T03:31:34.254Z,54.10
2019-04-22T03:33:19.096Z,54.10
2019-04-22T03:33:52.354Z,54.20
2019-04-22T03:35:15.959Z,54.20
2019-04-22T03:36:49.237Z,54.30
2019-04-22T03:37:32.121Z,54.20
2019-04-22T03:39:04.481Z,54.00
2019-04-22T03:39:31.980Z,53.90
2019-04-22T03:41:03.246Z,53.60
2019-04-22T03:42:09.779Z,53.40
2019-04-22T03:42:59.758Z,53.50
2019-04-22T03:43:35.096Z,53.70
2019-04-22T03:45:26.226Z,53.60
2019-04-22T03:45:37.847Z,53.50
2019-04-22T03:46:39.411Z,53.60
2019-04-22T03:47:45.399Z,53.50
2019-04-22T03:48:15.907Z,53.60
2019-04-22T03:49:07.223Z,53.60
2019-04-22T03:50:38.300Z,53.50
2019-04-22T03:51:33.755Z,53.60
2019-04-22T03:52:07.302Z,53.50
2019-04-22T03:52:31.057Z,53.50
2019-04-22T03:53:09.464Z,53.50
2019-04-22T03:53:38.468Z,53.50
2019-04-22T03:54:29.223Z,53.50
2019-04-22T03:55:05.100Z,53.60
2019-04-22T03:55:29.013Z,53.70
2019-04-22T03:56:32.681Z,53.70
2019-04-22T03:57:18.310Z,53.70
2019-04-22T03:57:56.053Z,53.80
2019-04-22T03:58:39.233Z,53.80
2019-04-22T03:59:20.007Z,53.80
2019-04-22T04:00:55.542Z,53.90
2019-04-22T04:02:24.319Z,54.00
2019-04-22T04:02:45.825Z,54.10
2019-04-22T04:04:09.251Z,54.60
2019-04-22T04:05:10.809Z,55.00
2019-04-22T04:05:57.536Z,55.00
2019-04-22T04:06:32.816Z,55.20
2019-04-22T04:07:11.547Z,55.20
2019-04-22T04:07:49.686Z,55.20
2019-04-22T04:08:14.636Z,55.20
2019-04-22T04:08:51.010Z,56.00
2019-04-22T04:09:32.160Z,55.50
2019-04-22T04:10:13.000Z,55.60
2019-04-22T04:11:25.191Z,55.70
2019-04-22T04:12:42.015Z,55.50
2019-04-22T04:13:39.548Z,55.40
2019-04-22T04:14:26.237Z,55.50
2019-04-22T04:15:32.744Z,55.40
2019-04-22T04:16:03.157Z,55.40
2019-04-22T04:16:49.987Z,55.50
2019-04-22T04:17:23.159Z,55.50
2019-04-22T04:18:43.840Z,55.60
2019-04-22T04:19:56.321Z,55.50
2019-04-22T04:21:39.750Z,55.30
2019-04-22T04:23:30.940Z,55.40
2019-04-22T04:24:11.200Z,55.50
2019-04-22T04:24:44.042Z,55.50
2019-04-22T04:25:38.129Z,55.50
2019-04-22T04:26:42.506Z,55.60
2019-04-22T04:27:53.788Z,55.70
2019-04-22T04:28:29.782Z,55.70
2019-04-22T04:30:15.954Z,55.70
2019-04-22T04:30:31.989Z,55.60
2019-04-22T04:31:53.289Z,55.60
2019-04-22T04:34:20.057Z,55.90
2019-04-22T04:36:23.132Z,55.90
2019-04-22T04:36:47.262Z,56.00
2019-04-22T04:38:28.714Z,56.00
2019-04-22T04:39:53.496Z,56.10
2019-04-22T04:41:33.826Z,55.90
2019-04-22T04:42:13.353Z,55.90
2019-04-22T04:42:46.070Z,55.90
2019-04-22T04:43:18.772Z,56.00
2019-04-22T04:46:36.162Z,56.20
2019-04-22T04:46:58.739Z,56.20
2019-04-22T04:48:51.848Z,56.10
2019-04-22T04:51:00.348Z,55.90
2019-04-22T04:51:16.278Z,55.90
2019-04-22T04:51:51.313Z,55.90
2019-04-22T04:52:50.296Z,55.90
2019-04-22T04:53:06.198Z,56.00
2019-04-22T04:53:34.098Z,56.00
2019-04-22T04:54:21.446Z,55.90
2019-04-22T04:55:28.585Z,55.90
2019-04-22T04:56:06.467Z,56.20
2019-04-22T04:56:40.604Z,56.30
2019-04-22T04:57:16.949Z,56.40
2019-04-22T04:58:34.351Z,56.30
2019-04-22T05:00:00.550Z,56.20
2019-04-22T05:00:57.763Z,56.40
2019-04-22T05:01:35.530Z,56.50
2019-04-22T05:02:00.080Z,56.60
2019-04-22T05:03:49.900Z,56.50
2019-04-22T05:04:14.200Z,56.30
2019-04-22T05:06:01.441Z,55.80
2019-04-22T05:06:46.713Z,55.80
2019-04-22T05:07:19.624Z,55.80
2019-04-22T05:07:50.142Z,55.80
2019-04-22T05:08:39.101Z,55.90
2019-04-22T05:10:56.265Z,55.60
2019-04-22T05:11:38.761Z,55.60
2019-04-22T05:13:32.856Z,55.50
2019-04-22T05:13:57.423Z,55.50
2019-04-22T05:14:36.918Z,55.50
2019-04-22T05:15:09.104Z,55.60
2019-04-22T05:15:51.019Z,55.60
2019-04-22T05:16:54.135Z,55.50
2019-04-22T05:17:43.678Z,55.50
2019-04-22T05:18:49.121Z,55.50
2019-04-22T05:19:15.413Z,55.50
2019-04-22T05:19:57.339Z,55.30
2019-04-22T05:20:44.982Z,55.30
2019-04-22T05:21:40.212Z,55.20
2019-04-22T05:22:14.926Z,55.10
2019-04-22T05:23:30.404Z,55.00
2019-04-22T05:24:15.152Z,55.10
2019-04-22T05:25:17.898Z,55.00
2019-04-22T05:25:48.841Z,54.90
2019-04-22T05:27:15.059Z,54.90
2019-04-22T05:27:39.485Z,54.90
2019-04-22T05:28:15.179Z,54.90
2019-04-22T05:28:52.089Z,55.00
2019-04-22T05:29:42.024Z,54.90
2019-04-22T05:30:57.199Z,55.10
2019-04-22T05:32:37.075Z,55.00
2019-04-22T05:33:02.888Z,55.00
2019-04-22T05:33:42.488Z,55.00
2019-04-22T05:34:57.574Z,55.00
2019-04-22T05:35:31.174Z,55.00
2019-04-22T05:36:13.048Z,55.00
2019-04-22T05:36:48.075Z,55.00
2019-04-22T05:37:30.988Z,55.00
2019-04-22T05:38:05.060Z,55.00
2019-04-22T05:38:42.349Z,55.10
2019-04-22T05:39:11.134Z,55.30
2019-04-22T05:39:51.394Z,55.20
2019-04-22T05:40:26.179Z,55.10
2019-04-22T05:40:56.461Z,55.00
2019-04-22T05:41:35.358Z,54.90
2019-04-22T05:42:16.031Z,54.60
2019-04-22T05:42:51.313Z,54.40
2019-04-22T05:43:22.689Z,54.30
2019-04-22T05:44:03.536Z,54.40
2019-04-22T05:44:41.181Z,54.20
2019-04-22T05:45:17.620Z,54.10
2019-04-22T05:45:43.267Z,54.10
2019-04-22T05:46:22.467Z,54.00
2019-04-22T05:47:04.395Z,53.90
2019-04-22T05:47:42.614Z,53.90
2019-04-22T05:48:15.787Z,53.90
2019-04-22T05:48:54.211Z,53.80
2019-04-22T05:49:27.187Z,53.70
2019-04-22T05:50:06.524Z,53.80
2019-04-22T05:50:37.301Z,53.80
2019-04-22T05:51:21.719Z,53.80
2019-04-22T05:51:53.189Z,53.90
2019-04-22T05:52:26.885Z,53.80
2019-04-22T05:53:03.187Z,53.90
2019-04-22T05:53:40.297Z,53.90
2019-04-22T05:54:25.539Z,53.90
2019-04-22T05:54:55.296Z,54.00
2019-04-22T05:55:36.330Z,54.00
2019-04-22T05:56:17.524Z,54.10
2019-04-22T05:57:18.026Z,54.30
2019-04-22T05:57:50.989Z,54.40
2019-04-22T05:59:46.244Z,54.30
2019-04-22T06:00:25.581Z,54.30
2019-04-22T06:02:24.068Z,54.50
2019-04-22T06:02:56.806Z,54.70
2019-04-22T06:03:32.432Z,54.70
2019-04-22T06:04:09.807Z,54.60
2019-04-22T06:04:48.030Z,54.50
2019-04-22T06:05:19.655Z,54.50
2019-04-22T06:05:55.213Z,54.50
2019-04-22T06:07:06.441Z,54.10
2019-04-22T06:07:38.652Z,54.10
2019-04-22T06:08:19.674Z,54.10
2019-04-22T06:09:02.246Z,54.20
2019-04-22T06:09:32.368Z,54.10
2019-04-22T06:10:22.647Z,54.20
2019-04-22T06:11:28.436Z,53.70
2019-04-22T06:11:58.913Z,53.80
2019-04-22T06:12:40.421Z,53.80
2019-04-22T06:13:18.188Z,53.80
2019-04-22T06:13:59.203Z,53.80
2019-04-22T06:14:37.016Z,53.70
2019-04-22T06:15:21.201Z,53.70
2019-04-22T06:15:53.060Z,53.80
2019-04-22T06:16:40.073Z,53.70
2019-04-22T06:17:12.436Z,53.60
2019-04-22T06:17:57.411Z,53.60
2019-04-22T06:18:27.256Z,53.50
2019-04-22T06:19:02.657Z,53.50
2019-04-22T06:19:44.175Z,53.60
2019-04-22T06:20:18.601Z,53.60
2019-04-22T06:21:04.265Z,53.50
2019-04-22T06:21:35.656Z,53.50
2019-04-22T06:22:04.296Z,53.40
2019-04-22T06:22:58.452Z,53.40
2019-04-22T06:23:18.623Z,53.50
2019-04-22T06:23:58.865Z,53.30
2019-04-22T06:24:27.661Z,53.30
2019-04-22T06:25:10.377Z,53.20
2019-04-22T06:27:01.593Z,53.00
2019-04-22T06:27:37.196Z,52.90
2019-04-22T06:28:15.821Z,52.80
2019-04-22T06:29:19.395Z,52.90
2019-04-22T06:29:53.661Z,53.00
2019-04-22T06:30:34.664Z,53.00
2019-04-22T06:31:12.280Z,53.00
2019-04-22T06:32:26.700Z,52.80
2019-04-22T06:33:00.888Z,53.00
2019-04-22T06:33:40.508Z,53.10
2019-04-22T06:34:48.165Z,53.00
2019-04-22T06:35:33.803Z,53.00
2019-04-22T06:36:37.877Z,52.90
2019-04-22T06:37:13.394Z,52.90
2019-04-22T06:38:14.544Z,53.00
2019-04-22T06:39:05.144Z,53.00
2019-04-22T06:40:16.475Z,52.80
2019-04-22T06:40:55.250Z,52.90
2019-04-22T06:41:40.247Z,52.90
2019-04-22T06:42:03.115Z,52.90
2019-04-22T06:42:42.467Z,52.90
2019-04-22T06:43:16.298Z,53.60
2019-04-22T06:43:56.157Z,53.10
2019-04-22T06:45:04.206Z,53.10
2019-04-22T06:45:51.678Z,53.10
2019-04-22T06:46:20.806Z,53.10
2019-04-22T06:46:52.081Z,53.10
2019-04-22T06:47:49.190Z,53.00
2019-04-22T06:48:07.017Z,52.80
2019-04-22T06:48:54.768Z,52.80
2019-04-22T06:49:22.750Z,52.70
2019-04-22T06:49:55.520Z,52.90
2019-04-22T06:50:36.790Z,53.00
2019-04-22T06:51:06.483Z,53.00
2019-04-22T06:51:45.064Z,52.90
2019-04-22T06:52:18.295Z,52.90
2019-04-22T06:52:56.907Z,52.70
2019-04-22T06:53:36.813Z,52.60
2019-04-22T06:54:07.278Z,52.50
2019-04-22T06:54:50.430Z,52.50
2019-04-22T06:55:23.285Z,52.50
2019-04-22T06:56:20.620Z,52.70
2019-04-22T06:56:35.189Z,52.60
2019-04-22T06:57:25.201Z,52.60
2019-04-22T06:57:49.478Z,52.70
2019-04-22T06:58:20.204Z,52.60
2019-04-22T06:58:57.794Z,52.30
2019-04-22T06:59:37.756Z,52.30
2019-04-22T07:00:10.635Z,52.10
2019-04-22T07:00:44.604Z,52.00
2019-04-22T07:02:02.607Z,52.00
2019-04-22T07:02:47.189Z,51.70
2019-04-22T07:04:09.448Z,51.80
2019-04-22T07:04:23.246Z,51.70
2019-04-22T07:05:02.900Z,51.50
2019-04-22T07:05:43.117Z,51.60
2019-04-22T07:06:19.847Z,51.60
2019-04-22T07:06:56.515Z,51.70
2019-04-22T07:07:24.147Z,51.60
2019-04-22T07:08:16.478Z,51.50
2019-04-22T07:09:05.844Z,51.60
2019-04-22T07:10:01.387Z,51.50
2019-04-22T07:11:38.012Z,51.40
2019-04-22T07:12:20.449Z,51.40
2019-04-22T07:12:49.738Z,51.50
2019-04-22T07:13:40.815Z,51.50
2019-04-22T07:14:42.010Z,51.50
2019-04-22T07:15:35.814Z,51.50
2019-04-22T07:15:57.786Z,51.50
2019-04-22T07:16:31.712Z,51.50
2019-04-22T07:17:07.325Z,51.40
2019-04-22T07:18:24.671Z,51.20
2019-04-22T07:18:58.729Z,51.30
2019-04-22T07:19:33.503Z,51.30
2019-04-22T07:20:10.764Z,51.30
2019-04-22T07:20:44.215Z,51.10
2019-04-22T07:21:26.127Z,51.00
2019-04-22T07:21:57.149Z,50.90
2019-04-22T07:22:33.805Z,51.00
2019-04-22T07:23:15.479Z,51.20
2019-04-22T07:24:59.174Z,50.50
2019-04-22T07:25:37.360Z,50.60
2019-04-22T07:26:54.381Z,50.80
2019-04-22T07:27:40.715Z,50.50
2019-04-22T07:27:58.290Z,50.40
2019-04-22T07:28:29.034Z,50.40
2019-04-22T07:29:17.194Z,50.50
2019-04-22T07:29:59.820Z,50.40
2019-04-22T07:30:28.058Z,50.30
2019-04-22T07:31:05.639Z,50.10
2019-04-22T07:31:45.377Z,50.20
2019-04-22T07:32:16.515Z,50.30
2019-04-22T07:33:12.665Z,50.10
2019-04-22T07:34:08.166Z,50.00
2019-04-22T07:34:42.712Z,50.00
2019-04-22T07:35:23.895Z,49.90
2019-04-22T07:36:16.909Z,49.70
2019-04-22T07:36:45.623Z,49.50
2019-04-22T07:37:54.251Z,49.20
2019-04-22T07:38:23.861Z,49.10
2019-04-22T07:38:55.326Z,49.00
2019-04-22T07:39:35.156Z,49.30
2019-04-22T07:40:09.937Z,49.30
2019-04-22T07:40:52.668Z,49.10
2019-04-22T07:41:24.734Z,49.10
2019-04-22T07:41:59.199Z,49.10
2019-04-22T07:43:16.538Z,48.60
2019-04-22T07:43:59.857Z,48.70
2019-04-22T07:44:26.552Z,48.70
2019-04-22T07:45:36.172Z,48.30
2019-04-22T07:46:13.444Z,48.30
2019-04-22T07:47:38.254Z,48.40
2019-04-22T07:48:09.625Z,48.30
2019-04-22T07:48:49.925Z,48.30
2019-04-22T07:49:33.814Z,48.30
2019-04-22T07:49:50.886Z,48.20
2019-04-22T07:50:37.841Z,48.20
2019-04-22T07:51:02.550Z,48.20
2019-04-22T07:51:38.691Z,48.20
2019-04-22T07:52:16.009Z,48.40
2019-04-22T07:52:44.954Z,48.30
2019-04-22T07:53:21.671Z,48.00
2019-04-22T07:54:01.850Z,47.70
2019-04-22T07:54:43.415Z,47.60
2019-04-22T07:55:11.911Z,47.50
2019-04-22T07:55:52.253Z,47.50
2019-04-22T07:56:30.533Z,47.20
2019-04-22T07:57:08.915Z,47.10
2019-04-22T07:57:39.579Z,47.20
2019-04-22T07:58:18.608Z,47.30
2019-04-22T07:58:55.641Z,47.40
2019-04-22T07:59:30.386Z,47.60
2019-04-22T08:00:10.666Z,47.50
2019-04-22T08:00:38.776Z,47.50
2019-04-22T08:01:20.343Z,47.50
2019-04-22T08:01:56.277Z,47.40
2019-04-22T08:03:10.652Z,47.10
2019-04-22T08:03:51.760Z,47.20
2019-04-22T08:06:12.248Z,46.30
2019-04-22T08:06:52.352Z,46.40
2019-04-22T08:07:26.035Z,46.30
2019-04-22T08:08:09.118Z,46.00
2019-04-22T08:08:38.925Z,46.00
2019-04-22T08:09:15.174Z,46.00
2019-04-22T08:10:00.345Z,46.20
2019-04-22T08:10:35.320Z,46.20
2019-04-22T08:11:11.781Z,46.20
2019-04-22T08:12:12.976Z,46.70
2019-04-22T08:12:50.786Z,46.70
2019-04-22T08:13:24.827Z,46.80
2019-04-22T08:14:01.574Z,46.60
2019-04-22T08:14:40.737Z,46.30
2019-04-22T08:15:12.869Z,46.00
2019-04-22T08:15:55.408Z,46.00
2019-04-22T08:16:24.326Z,46.00
2019-04-22T08:17:17.188Z,46.00
2019-04-22T08:18:17.447Z,46.00
2019-04-22T08:18:52.651Z,46.30
2019-04-22T08:19:26.909Z,46.10
2019-04-22T08:20:40.985Z,46.20
2019-04-22T08:21:16.246Z,46.20
2019-04-22T08:21:59.885Z,46.20
2019-04-22T08:22:26.041Z,46.20
2019-04-22T08:23:09.291Z,46.40
2019-04-22T08:23:44.724Z,46.60
2019-04-22T08:24:36.251Z,46.70
2019-04-22T08:24:54.013Z,46.70
2019-04-22T08:25:37.602Z,46.60
2019-04-22T08:26:09.870Z,46.70
2019-04-22T08:26:46.522Z,46.70
2019-04-22T08:27:15.468Z,46.70
2019-04-22T08:27:57.268Z,46.50
2019-04-22T08:28:41.317Z,46.70
2019-04-22T08:29:17.843Z,46.60
2019-04-22T08:29:53.614Z,46.70
2019-04-22T08:30:28.972Z,46.70
2019-04-22T08:31:01.964Z,46.70
2019-04-22T08:31:35.938Z,46.60
2019-04-22T08:32:15.206Z,46.40
2019-04-22T08:32:49.302Z,46.30
2019-04-22T08:33:29.485Z,46.30
2019-04-22T08:34:01.845Z,46.30
2019-04-22T08:34:38.888Z,46.20
2019-04-22T08:35:13.848Z,46.30
2019-04-22T08:36:07.208Z,46.20
2019-04-22T08:36:26.412Z,46.20
2019-04-22T08:37:47.388Z,45.70
2019-04-22T08:38:11.496Z,44.70
2019-04-22T08:38:53.992Z,44.30
2019-04-22T08:39:25.223Z,44.60
2019-04-22T08:40:07.649Z,44.90
2019-04-22T08:40:44.703Z,45.10
2019-04-22T08:41:27.295Z,45.00
2019-04-22T08:41:53.138Z,44.90
2019-04-22T08:42:43.459Z,45.00
2019-04-22T08:43:33.723Z,45.20
2019-04-22T08:43:56.127Z,45.30
2019-04-22T08:44:27.821Z,45.10
2019-04-22T08:45:38.777Z,44.80
2019-04-22T08:46:16.678Z,44.50
2019-04-22T08:46:50.949Z,44.20
2019-04-22T08:48:00.944Z,44.10
2019-04-22T08:48:48.135Z,44.00
2019-04-22T08:49:16.059Z,43.80
2019-04-22T08:50:02.702Z,43.60
2019-04-22T08:50:33.494Z,43.70
2019-04-22T08:51:13.561Z,43.80
2019-04-22T08:51:49.561Z,43.60
2019-04-22T08:52:30.362Z,43.60
2019-04-22T08:53:05.900Z,43.60
2019-04-22T08:53:41.488Z,43.50
2019-04-22T08:54:13.862Z,43.70
2019-04-22T08:54:55.420Z,43.80
2019-04-22T08:56:17.151Z,43.70
2019-04-22T08:57:18.221Z,43.80
2019-04-22T08:58:13.345Z,44.00
2019-04-22T08:58:35.912Z,43.90
2019-04-22T08:59:10.871Z,43.40
2019-04-22T08:59:37.202Z,43.30
2019-04-22T09:00:17.801Z,43.40
2019-04-22T09:00:56.995Z,43.60
2019-04-22T09:01:38.073Z,43.70
2019-04-22T09:02:06.575Z,43.90
2019-04-22T09:03:18.203Z,44.00
2019-04-22T09:03:58.531Z,43.90
2019-04-22T09:04:27.859Z,43.80
2019-04-22T09:05:19.093Z,43.70
2019-04-22T09:06:02.439Z,43.20
2019-04-22T09:06:29.972Z,42.70
2019-04-22T09:07:08.723Z,42.40
2019-04-22T09:07:33.846Z,42.40
2019-04-22T09:08:52.139Z,42.40
2019-04-22T09:09:11.442Z,42.60
2019-04-22T09:09:55.364Z,42.70
2019-04-22T09:10:37.728Z,42.80
2019-04-22T09:11:13.172Z,42.80
2019-04-22T09:11:47.049Z,42.70
2019-04-22T09:12:23.995Z,42.40
2019-04-22T09:13:06.894Z,42.30
2019-04-22T09:13:35.560Z,41.90
2019-04-22T09:14:16.527Z,41.60
2019-04-22T09:14:45.718Z,41.60
2019-04-22T09:15:26.386Z,41.70
2019-04-22T09:16:02.206Z,41.90
2019-04-22T09:16:39.396Z,41.70
2019-04-22T09:17:17.991Z,41.90
2019-04-22T09:18:28.770Z,41.80
2019-04-22T09:18:59.542Z,41.80
2019-04-22T09:19:38.578Z,41.90
2019-04-22T09:20:13.135Z,42.00
2019-04-22T09:21:04.703Z,41.80
2019-04-22T09:21:32.782Z,41.70
2019-04-22T09:22:08.244Z,41.50
2019-04-22T09:22:35.779Z,41.50
2019-04-22T09:23:18.601Z,41.70
2019-04-22T09:23:56.836Z,41.70
2019-04-22T09:24:29.653Z,41.40
2019-04-22T09:24:58.607Z,41.30